Time;durP1;ratioP1;P1;durP2;ratioP2;P2;SDS_P1;SDS_P2;PMS_P1;PMS_P2;Temp;Humidity;BMP_temperature;BMP_pressure;BME280_temperature;BME280_humidity;BME280_pressure;Samples;Min_cycle;Max_cycle;Signal;HPM_P1;HPM_P2
2021/08/14 05:02:23;;;;;;;6.07;4.05;;;;;;;27.00;51.63;95487.88;5019134;23;20127;-73
2021/08/14 05:04:49;;;;;;;4.78;4.38;;;;;;;27.57;50.62;95493.94;4880529;29;20130;-72
2021/08/14 05:07:14;;;;;;;7.15;4.88;;;;;;;28.13;49.58;95492.13;4912521;29;20059;-72
2021/08/14 05:09:40;;;;;;;5.05;4.25;;;;;;;28.19;48.31;95490.28;4913055;29;20047;-72
2021/08/14 05:12:05;;;;;;;5.80;4.00;;;;;;;28.85;47.63;95482.97;4896415;29;20023;-72
2021/08/14 05:14:31;;;;;;;5.03;4.38;;;;;;;28.43;47.98;95491.31;4890752;29;20044;-72
2021/08/14 05:16:56;;;;;;;5.65;4.18;;;;;;;29.13;46.53;95489.53;4910253;29;20079;-72
2021/08/14 05:21:57;;;;;;;4.85;4.40;;;;;;;30.38;44.56;95487.16;5007492;23;20080;-75
2021/08/14 05:24:23;;;;;;;4.18;3.83;;;;;;;30.54;43.60;95485.16;4911356;29;20086;-76
2021/08/14 05:26:48;;;;;;;4.95;3.85;;;;;;;30.50;43.86;95479.59;4906124;29;20035;-76
2021/08/14 05:29:14;;;;;;;5.25;4.28;;;;;;;30.46;43.94;95478.56;4900111;29;20078;-74
2021/08/14 05:31:39;;;;;;;4.53;4.00;;;;;;;30.51;43.35;95488.41;4912017;29;20118;-72
2021/08/14 05:34:05;;;;;;;5.53;4.30;;;;;;;30.02;44.45;95480.53;4921967;29;20044;-72
2021/08/14 05:36:34;;;;;;;4.22;3.83;;;;;;;30.63;42.88;95483.47;4896059;29;20559;-71
2021/08/14 05:39:00;;;;;;;4.13;3.67;;;;;;;31.20;41.60;95477.22;4892375;29;20314;-72
2021/08/14 05:41:25;;;;;;;7.60;3.63;;;;;;;31.73;40.70;95483.22;4907193;29;20101;-72
2021/08/14 05:43:50;;;;;;;4.97;4.18;;;;;;;31.89;39.89;95460.44;4913395;29;20040;-72
2021/08/14 05:46:16;;;;;;;4.40;4.10;;;;;;;31.84;40.20;95484.66;4912834;29;20051;-72
2021/08/14 05:48:42;;;;;;;4.68;3.95;;;;;;;32.00;39.49;95464.56;4913090;29;20448;-72
2021/08/14 05:51:10;;;;;;;4.65;4.25;;;;;;;32.56;38.28;95472.47;4913597;29;20028;-71
2021/08/14 05:53:35;;;;;;;4.00;3.70;;;;;;;32.24;38.42;95475.19;4912223;29;20035;-71
2021/08/14 05:56:01;;;;;;;4.38;3.97;;;;;;;33.51;36.98;95468.22;4898131;29;20035;-74
2021/08/14 05:58:26;;;;;;;4.03;3.50;;;;;;;33.15;37.53;95476.25;4896553;29;20032;-71
2021/08/14 06:00:52;;;;;;;4.20;3.90;;;;;;;32.07;38.18;95483.00;4906466;29;20490;-72
2021/08/14 06:03:17;;;;;;;4.88;4.57;;;;;;;32.59;38.63;95471.91;4904021;29;20539;-72
2021/08/14 06:05:45;;;;;;;5.10;4.40;;;;;;;31.50;39.86;95479.50;4916335;29;20036;-73
2021/08/14 06:08:10;;;;;;;4.15;3.75;;;;;;;28.31;47.16;95482.81;4897414;29;20082;-73
2021/08/14 06:10:36;;;;;;;4.18;3.80;;;;;;;28.86;45.95;95481.13;4935557;29;20050;-72
2021/08/14 06:13:01;;;;;;;3.95;3.65;;;;;;;29.59;44.50;95477.59;4933881;29;20115;-73
2021/08/14 06:15:27;;;;;;;4.50;4.05;;;;;;;30.02;43.63;95480.53;4932648;29;20043;-72
2021/08/14 06:17:53;;;;;;;4.35;3.88;;;;;;;30.25;43.75;95477.09;4901031;29;20024;-72
2021/08/14 06:20:18;;;;;;;4.80;4.20;;;;;;;31.44;40.52;95469.94;4915574;29;20110;-73
2021/08/14 06:22:44;;;;;;;4.40;3.83;;;;;;;35.75;32.66;95477.22;4885118;29;20062;-73
2021/08/14 06:25:10;;;;;;;3.78;3.47;;;;;;;35.56;33.34;95482.09;4897152;29;20064;-72
2021/08/14 06:27:36;;;;;;;5.18;3.40;;;;;;;36.83;31.47;95476.13;4916161;29;20046;-75
2021/08/14 06:30:02;;;;;;;4.40;4.00;;;;;;;37.30;30.85;95474.97;4916565;29;20024;-71
2021/08/14 06:32:28;;;;;;;5.03;3.90;;;;;;;35.49;33.83;95475.56;4899828;29;20058;-71
2021/08/14 06:34:53;;;;;;;4.28;3.97;;;;;;;34.62;35.03;95469.09;4903041;29;20032;-71
2021/08/14 06:37:19;;;;;;;4.63;3.75;;;;;;;34.42;35.53;95464.22;4899802;29;20460;-72
2021/08/14 06:39:44;;;;;;;5.75;4.15;;;;;;;34.90;34.39;95465.09;4926856;29;20260;-74
2021/08/14 06:42:09;;;;;;;4.63;3.97;;;;;;;33.86;35.81;95462.88;4893153;29;20493;-72
2021/08/14 06:44:35;;;;;;;6.35;4.55;;;;;;;31.43;40.79;95467.56;4927348;29;20123;-72
2021/08/14 06:47:01;;;;;;;4.68;4.28;;;;;;;28.43;46.60;95464.66;4907449;29;20020;-72
2021/08/14 06:49:26;;;;;;;4.85;3.55;;;;;;;29.22;46.06;95458.53;4918069;29;20023;-72
2021/08/14 06:51:52;;;;;;;3.88;3.53;;;;;;;30.96;42.73;95455.03;4897274;29;20538;-72
2021/08/14 06:54:17;;;;;;;4.03;3.63;;;;;;;30.65;42.50;95458.03;4908727;29;20034;-71
2021/08/14 06:56:43;;;;;;;3.90;3.60;;;;;;;30.16;43.28;95458.22;4920952;29;20047;-72
2021/08/14 06:59:08;;;;;;;5.25;3.83;;;;;;;29.47;45.90;95457.63;4925377;29;20031;-72
2021/08/14 07:01:34;;;;;;;5.50;4.00;;;;;;;29.75;45.20;95449.69;4917424;29;20027;-73
2021/08/14 07:03:59;;;;;;;4.60;4.20;;;;;;;33.47;38.02;95453.78;4917078;29;20035;-72
2021/08/14 07:06:25;;;;;;;4.10;3.80;;;;;;;35.14;34.83;95456.63;4902785;29;20413;-73
2021/08/14 07:08:51;;;;;;;6.35;4.07;;;;;;;29.29;45.42;95449.19;4951766;29;20031;-72
2021/08/14 07:11:17;;;;;;;4.68;4.28;;;;;;;29.97;45.06;95459.16;4933831;29;20031;-72
2021/08/14 07:13:42;;;;;;;5.25;4.38;;;;;;;29.25;46.65;95461.47;4918797;29;20037;-73
2021/08/14 07:16:08;;;;;;;5.45;4.20;;;;;;;30.21;45.22;95450.13;4933200;29;20037;-72
2021/08/14 07:18:33;;;;;;;4.03;3.50;;;;;;;31.25;43.44;95459.19;4903442;29;20027;-72
2021/08/14 07:20:59;;;;;;;4.60;4.22;;;;;;;30.53;44.51;95460.31;4917302;29;20436;-72
2021/08/14 07:23:24;;;;;;;4.88;4.45;;;;;;;29.89;45.39;95452.56;4934735;29;20039;-73
2021/08/14 07:25:51;;;;;;;3.90;3.60;;;;;;;31.34;43.76;95451.31;4950795;29;20031;-73
2021/08/14 07:28:17;;;;;;;4.60;4.20;;;;;;;31.27;42.68;95456.25;4917883;29;20035;-73
2021/08/14 07:30:42;;;;;;;4.53;4.13;;;;;;;30.15;44.82;95440.56;4934603;29;20027;-73
2021/08/14 07:33:08;;;;;;;4.68;4.28;;;;;;;29.27;47.70;95447.88;4933063;29;20030;-74
2021/08/14 07:35:33;;;;;;;4.93;4.43;;;;;;;28.51;47.42;95442.75;4934543;29;20512;-75
2021/08/14 07:37:59;;;;;;;6.38;4.57;;;;;;;29.34;45.84;95444.91;4917076;29;20386;-74
2021/08/14 07:40:24;;;;;;;5.03;4.60;;;;;;;30.34;43.69;95446.03;4934524;29;20034;-74
2021/08/14 07:42:50;;;;;;;4.70;4.40;;;;;;;29.55;43.79;95444.50;4933472;29;20027;-74
2021/08/14 07:45:17;;;;;;;4.32;3.92;;;;;;;30.00;42.36;95450.59;4917967;29;20110;-74
2021/08/14 07:47:50;;;;;;;42.15;7.35;;;;;;;28.20;44.94;95443.91;4934557;29;20058;-75
2021/08/14 07:50:24;;;;;;;7.15;4.75;;;;;;;28.06;47.63;95448.97;4918031;29;20065;-74
2021/08/14 07:52:49;;;;;;;5.53;4.53;;;;;;;28.55;46.30;95443.03;4902815;29;20031;-74
2021/08/14 07:55:15;;;;;;;4.93;4.40;;;;;;;30.20;45.35;95453.09;4930031;29;20062;-73
2021/08/14 07:57:40;;;;;;;4.47;4.05;;;;;;;30.75;42.09;95444.53;4915263;29;20024;-74
2021/08/14 08:00:07;;;;;;;5.70;4.40;;;;;;;30.80;42.30;95447.16;4898160;29;20032;-74
2021/08/14 08:02:33;;;;;;;4.43;4.03;;;;;;;31.42;39.96;95441.84;4883349;29;20031;-73
2021/08/14 08:04:58;;;;;;;7.15;4.38;;;;;;;29.54;41.83;95445.56;4914797;29;20042;-73
2021/08/14 08:07:23;;;;;;;7.70;4.25;;;;;;;30.28;39.83;95441.78;4913600;29;20032;-75
2021/08/14 08:09:49;;;;;;;7.47;3.90;;;;;;;30.20;40.04;95437.06;4932080;29;20032;-73
2021/08/14 08:12:14;;;;;;;5.43;3.90;;;;;;;30.63;39.79;95436.09;4897941;29;20118;-73
2021/08/14 08:14:40;;;;;;;5.28;4.30;;;;;;;31.07;39.15;95427.06;4914919;29;20027;-84
2021/08/14 08:17:05;;;;;;;6.70;4.72;;;;;;;29.91;40.16;95430.91;4897785;29;20042;-73
2021/08/14 08:19:31;;;;;;;7.75;4.40;;;;;;;30.38;39.27;95435.53;4931732;29;20061;-73
2021/08/14 08:21:57;;;;;;;5.47;4.40;;;;;;;28.37;42.90;95436.41;4914111;29;20047;-74
2021/08/14 08:24:22;;;;;;;4.80;4.35;;;;;;;30.48;41.01;95427.44;4912764;29;20485;-74
2021/08/14 08:26:48;;;;;;;5.45;4.55;;;;;;;30.76;38.00;95430.06;4928331;29;20033;-74
2021/08/14 08:29:13;;;;;;;6.35;5.55;;;;;;;29.98;39.22;95418.00;4932064;29;20027;-74
2021/08/14 08:31:39;;;;;;;5.38;4.88;;;;;;;31.42;38.15;95429.25;4933586;29;20039;-74
2021/08/14 08:34:04;;;;;;;6.15;4.60;;;;;;;31.18;38.79;95426.63;4916039;29;20031;-76
2021/08/14 08:36:30;;;;;;;6.28;4.60;;;;;;;31.55;36.94;95422.38;4932912;29;20031;-75
2021/08/14 08:38:55;;;;;;;5.15;4.70;;;;;;;31.41;38.58;95427.66;4932404;29;20074;-73
2021/08/14 08:41:21;;;;;;;8.50;4.30;;;;;;;30.68;38.68;95393.25;4950151;29;20532;-74
2021/08/14 08:43:46;;;;;;;5.43;4.60;;;;;;;30.40;39.61;95422.72;4920841;29;20114;-74
2021/08/14 08:46:12;;;;;;;7.63;4.93;;;;;;;30.56;37.43;95422.28;4876335;29;20484;-77
2021/08/14 08:48:42;;;;;;;5.88;5.28;;;;;;;30.92;38.73;95416.50;4895345;29;20032;-77
2021/08/14 08:51:07;;;;;;;6.13;5.28;;;;;;;30.18;38.97;95410.59;4893368;29;20039;-75
2021/08/14 08:53:32;;;;;;;6.68;6.18;;;;;;;30.93;37.87;95412.72;4895022;29;20032;-74
2021/08/14 08:55:59;;;;;;;6.18;5.57;;;;;;;30.58;38.34;95414.75;4906675;29;20046;-74
2021/08/14 08:58:25;;;;;;;8.02;5.60;;;;;;;30.32;38.30;95416.88;4949819;29;20420;-73
2021/08/14 09:00:50;;;;;;;6.00;5.60;;;;;;;30.37;38.62;95408.00;4931162;29;20031;-75
2021/08/14 09:03:15;;;;;;;6.07;5.60;;;;;;;30.23;39.74;95399.06;4912884;29;20027;-74
2021/08/14 09:05:46;;;;;;;6.20;5.80;;;;;;;30.45;38.40;95395.91;4897585;29;20032;-74
2021/08/14 09:08:12;;;;;;;8.30;6.05;;;;;;;29.49;40.65;95389.50;4896830;29;20035;-81
2021/08/14 09:10:37;;;;;;;7.05;6.45;;;;;;;29.71;40.08;95389.88;4898272;29;20465;-76
2021/08/14 09:13:17;;;;;;;7.18;6.07;;;;;;;31.05;38.49;95397.09;4896592;29;20027;-74
2021/08/14 09:15:42;;;;;;;6.80;6.30;;;;;;;29.84;39.08;95388.47;4881984;29;20051;-74
2021/08/14 09:18:09;;;;;;;7.03;6.47;;;;;;;30.57;38.59;95385.59;4883850;29;20031;-73
2021/08/14 09:20:51;;;;;;;5.90;5.40;;;;;;;30.28;38.42;95382.94;4915461;29;20062;-77
2021/08/14 09:23:17;;;;;;;7.22;6.68;;;;;;;31.64;37.69;95380.44;4906436;29;20584;-74
2021/08/14 09:25:44;;;;;;;7.60;6.57;;;;;;;31.07;36.57;95384.22;4911791;29;20028;-75
2021/08/14 09:28:10;;;;;;;6.70;6.10;;;;;;;30.92;39.04;95371.00;4913452;29;20040;-75
2021/08/14 09:30:52;;;;;;;6.07;5.57;;;;;;;31.57;39.01;95382.69;4912200;29;20066;-73
2021/08/14 09:33:22;;;;;;;6.60;5.97;;;;;;;30.44;40.49;95386.31;4913912;29;20032;-73
2021/08/14 09:35:56;;;;;;;5.30;5.00;;;;;;;30.31;40.84;95387.75;4898253;29;20452;-73
2021/08/14 09:38:21;;;;;;;5.93;5.53;;;;;;;30.40;41.57;95385.28;4916385;29;20055;-73
2021/08/14 09:40:47;;;;;;;6.35;5.55;;;;;;;30.83;39.69;95374.31;4901027;29;20068;-74
2021/08/14 09:43:32;;;;;;;6.72;6.22;;;;;;;29.70;39.39;95377.59;4883669;29;20028;-73
2021/08/14 09:45:57;;;;;;;7.65;6.95;;;;;;;29.24;40.15;95365.63;4933605;29;20103;-73
2021/08/14 09:48:24;;;;;;;7.50;6.70;;;;;;;28.74;41.28;95370.19;4911721;29;20626;-73
2021/08/14 09:50:49;;;;;;;7.30;6.60;;;;;;;29.89;39.94;95366.25;4916142;29;20071;-73
2021/08/14 09:53:17;;;;;;;7.05;6.53;;;;;;;30.31;38.77;95363.69;4912023;29;20033;-72
2021/08/14 09:55:45;;;;;;;7.13;6.60;;;;;;;29.73;39.26;95362.91;4900066;29;20031;-73
2021/08/14 09:58:12;;;;;;;7.55;6.85;;;;;;;30.91;39.72;95356.03;4917037;29;20046;-74
2021/08/14 10:00:38;;;;;;;7.88;7.13;;;;;;;29.01;39.80;95347.63;4915769;29;20032;-75
2021/08/14 10:03:04;;;;;;;7.93;7.43;;;;;;;30.24;38.63;95352.53;4901618;29;20024;-73
2021/08/14 10:05:32;;;;;;;8.52;7.93;;;;;;;31.38;37.07;95345.19;4915575;29;20086;-73
2021/08/14 10:07:59;;;;;;;;;;;;;;;30.58;37.34;95339.06;4885321;29;20032;-72
2021/08/14 10:10:24;;;;;;;9.88;6.78;;;;;;;31.26;36.13;95337.59;4934116;29;19914;-73
2021/08/14 10:12:50;;;;;;;12.00;10.40;;;;;;;30.96;33.77;95334.56;4899321;29;20043;-77
2021/08/14 10:15:15;;;;;;;8.20;7.60;;;;;;;30.26;35.35;95337.78;4916358;29;20036;-74
2021/08/14 10:17:41;;;;;;;8.88;8.38;;;;;;;30.76;34.88;95331.03;4899269;29;20509;-73
2021/08/14 10:20:06;;;;;;;8.00;7.25;;;;;;;30.63;34.78;95326.41;4916408;29;20036;-76
2021/08/14 10:22:32;;;;;;;8.15;7.45;;;;;;;30.24;35.01;95329.28;4912256;29;20063;-81
2021/08/14 10:24:57;;;;;;;8.75;8.18;;;;;;;29.58;35.95;95331.75;4897839;29;20047;-81
2021/08/14 10:27:23;;;;;;;8.05;7.47;;;;;;;29.32;37.20;95326.88;4897528;29;20032;-78
2021/08/14 10:29:52;;;;;;;7.93;7.43;;;;;;;29.63;37.14;95323.72;4896726;29;20020;-85
2021/08/14 10:32:41;;;;;;;7.68;7.13;;;;;;;29.65;38.05;95326.88;4898017;29;20028;-80
2021/08/14 10:35:12;;;;;;;7.25;6.57;;;;;;;29.54;38.19;95324.59;4907696;29;20036;-77
2021/08/14 10:37:39;;;;;;;7.40;6.70;;;;;;;30.28;35.06;95319.56;4912839;29;20043;-81
2021/08/14 10:40:05;;;;;;;7.53;6.85;;;;;;;30.92;34.51;95320.16;4897022;29;20509;-81
2021/08/14 10:42:53;;;;;;;6.78;6.30;;;;;;;29.88;34.42;95316.56;4913543;29;20028;-80
2021/08/14 10:45:34;;;;;;;7.18;6.65;;;;;;;29.82;36.23;95307.75;4914831;29;20612;-80
2021/08/14 10:48:04;;;;;;;7.43;6.82;;;;;;;29.58;37.40;95315.72;4895344;29;20726;-74
2021/08/14 10:50:33;;;;;;;7.85;7.30;;;;;;;29.38;37.73;95315.13;4913921;29;20075;-74
2021/08/14 10:53:10;;;;;;;7.65;6.93;;;;;;;29.86;35.38;95310.69;4918174;29;20119;-75
2021/08/14 10:55:36;;;;;;;8.13;7.60;;;;;;;31.11;34.00;95307.59;4899679;29;20095;-73
2021/08/14 10:58:17;;;;;;;8.90;8.10;;;;;;;31.38;34.64;95302.31;4929915;29;20027;-73
2021/08/14 11:00:42;;;;;;;7.57;6.97;;;;;;;31.54;33.33;95301.00;4931862;29;20114;-73
2021/08/14 11:03:09;;;;;;;6.72;6.32;;;;;;;31.26;33.15;95289.41;4932178;29;20087;-78
2021/08/14 11:05:36;;;;;;;7.43;6.45;;;;;;;31.12;33.52;95298.44;4930568;29;20035;-75
2021/08/14 11:08:01;;;;;;;6.53;6.13;;;;;;;31.74;32.96;95295.31;4915943;29;20038;-74
2021/08/14 11:10:35;;;;;;;6.03;5.63;;;;;;;31.90;32.52;95285.09;4931330;29;20028;-73
2021/08/14 11:13:00;;;;;;;7.00;6.50;;;;;;;30.99;33.72;95283.13;4915117;29;20114;-74
2021/08/14 11:15:37;;;;;;;5.78;5.28;;;;;;;31.71;32.48;95287.06;4931895;29;20115;-74
2021/08/14 11:18:02;;;;;;;7.25;6.53;;;;;;;31.81;34.30;95290.38;4887411;29;20387;-77
2021/08/14 11:20:41;;;;;;;6.90;5.45;;;;;;;31.06;36.35;95288.91;4881217;29;20047;-74
2021/08/14 11:23:26;;;;;;;6.38;5.78;;;;;;;29.81;36.92;95298.94;4879559;29;20032;-77
2021/08/14 11:25:51;;;;;;;6.40;5.82;;;;;;;29.51;37.42;95288.53;4912078;29;20039;-75
2021/08/14 11:28:28;;;;;;;7.38;6.72;;;;;;;30.51;35.31;95287.78;4880658;29;20032;-74
2021/08/14 11:31:03;;;;;;;6.70;6.10;;;;;;;31.13;34.55;95282.09;4895554;29;20038;-76
2021/08/14 11:33:29;;;;;;;8.27;4.60;;;;;;;31.19;34.82;95286.28;4896653;29;20667;-78
2021/08/14 11:36:06;;;;;;;5.55;4.90;;;;;;;31.06;34.39;95286.22;4910818;29;20032;-76
2021/08/14 11:38:35;;;;;;;5.97;5.25;;;;;;;30.96;33.95;95278.34;4896190;29;20479;-80
2021/08/14 11:41:02;;;;;;;5.85;5.40;;;;;;;31.33;32.56;95268.41;4895744;29;20453;-76
2021/08/14 11:43:37;;;;;;;6.03;5.53;;;;;;;30.89;32.56;95267.97;4911055;29;20502;-76
2021/08/14 11:46:03;;;;;;;5.40;5.05;;;;;;;31.49;32.63;95274.28;4903640;29;20039;-77
2021/08/14 11:48:36;;;;;;;6.63;4.53;;;;;;;31.52;33.01;95268.38;4913377;29;20055;-76
2021/08/14 11:51:01;;;;;;;4.25;3.92;;;;;;;31.12;32.76;95266.31;4899310;29;20051;-77
2021/08/14 11:53:27;;;;;;;4.50;4.07;;;;;;;31.26;33.48;95253.78;4913998;29;20090;-80
2021/08/14 11:56:16;;;;;;;5.45;5.00;;;;;;;31.32;34.06;95257.97;4913887;29;20024;-79
2021/08/14 11:58:42;;;;;;;4.85;4.43;;;;;;;31.45;34.42;95254.53;4899022;29;20027;-78
2021/08/14 12:01:09;;;;;;;5.05;4.55;;;;;;;31.50;33.34;95253.69;4913038;29;20067;-80
2021/08/14 12:03:34;;;;;;;5.07;4.57;;;;;;;31.38;34.04;95256.78;4915223;29;20035;-80
2021/08/14 12:06:10;;;;;;;5.45;4.45;;;;;;;31.21;33.71;95251.19;4897783;29;20023;-76
2021/08/14 12:08:40;;;;;;;4.85;4.50;;;;;;;31.21;33.04;95267.28;4898791;29;20083;-78
2021/08/14 12:11:10;;;;;;;4.57;4.28;;;;;;;31.24;32.49;95245.25;4914195;29;20541;-79
2021/08/14 12:13:36;;;;;;;3.90;3.60;;;;;;;31.02;31.66;95247.75;4898173;29;20035;-82
2021/08/14 12:16:18;;;;;;;3.90;3.63;;;;;;;31.41;32.45;95242.00;4906952;29;20039;-75
2021/08/14 12:18:48;;;;;;;5.03;4.63;;;;;;;31.48;32.35;95237.88;4894193;29;20032;-75
2021/08/14 12:21:15;;;;;;;4.65;4.05;;;;;;;31.59;32.06;95231.28;4890607;29;20131;-85
2021/08/14 12:23:40;;;;;;;4.30;3.90;;;;;;;31.42;32.07;95235.56;4893045;29;20043;-76
2021/08/14 12:26:08;;;;;;;5.00;4.60;;;;;;;30.37;34.03;95236.84;4870273;29;20025;-76
2021/08/14 12:28:34;;;;;;;4.13;3.83;;;;;;;31.34;32.99;95234.34;4876767;29;20037;-75
2021/08/14 12:31:01;;;;;;;4.57;4.18;;;;;;;31.81;31.98;95234.06;4890763;29;20032;-75
2021/08/14 12:33:30;;;;;;;4.47;4.07;;;;;;;31.26;31.97;95230.47;4892587;29;20085;-75
2021/08/14 12:35:56;;;;;;;;;;;;;;;30.24;34.67;95229.53;4892727;29;20493;-80
2021/08/14 12:38:21;;;;;;;4.15;3.85;;;;;;;30.89;33.67;95217.13;4891843;29;20445;-76
2021/08/14 12:40:47;;;;;;;5.35;3.95;;;;;;;31.27;32.91;95220.56;4892429;29;20038;-77
2021/08/14 12:43:16;;;;;;;4.15;3.80;;;;;;;30.30;34.17;95209.66;4893472;29;20066;-77
2021/08/14 12:45:42;;;;;;;4.30;3.90;;;;;;;30.44;34.12;95217.81;4879947;29;20044;-75
2021/08/14 12:48:10;;;;;;;4.95;4.20;;;;;;;30.59;33.85;95213.03;4909819;29;20028;-76
2021/08/14 12:50:38;;;;;;;4.63;3.83;;;;;;;31.07;33.01;95219.03;4911240;29;20060;-79
2021/08/14 12:53:08;;;;;;;4.28;3.97;;;;;;;31.12;32.04;95218.13;4909223;29;20032;-76
2021/08/14 12:55:45;;;;;;;3.95;3.75;;;;;;;30.71;32.66;95213.38;4910710;29;20043;-75
2021/08/14 12:58:12;;;;;;;4.25;3.95;;;;;;;30.57;32.92;95209.84;4909420;29;20028;-76
2021/08/14 13:00:39;;;;;;;4.03;3.72;;;;;;;30.70;33.17;95208.31;4910462;29;20111;-78
2021/08/14 13:03:05;;;;;;;4.50;4.10;;;;;;;30.61;31.99;95204.72;4910512;29;20027;-76
2021/08/14 13:05:31;;;;;;;5.07;3.63;;;;;;;30.79;32.72;95206.59;4909768;29;20059;-75
2021/08/14 13:07:57;;;;;;;4.43;4.03;;;;;;;31.24;32.89;95203.19;4910555;29;20457;-82
2021/08/14 13:10:22;;;;;;;3.85;3.65;;;;;;;31.27;32.48;95193.78;4908857;29;20386;-77
2021/08/14 13:12:55;;;;;;;3.88;3.53;;;;;;;31.09;32.52;95189.25;4910967;29;20125;-78
2021/08/14 13:15:21;;;;;;;5.20;3.60;;;;;;;31.08;33.33;95198.41;4908684;29;20117;-77
2021/08/14 13:17:47;;;;;;;4.30;4.00;;;;;;;31.32;33.32;95186.44;4893420;29;20123;-76
2021/08/14 13:20:13;;;;;;;4.43;3.80;;;;;;;31.05;33.25;95193.63;4894069;29;20032;-75
2021/08/14 13:22:39;;;;;;;4.45;3.88;;;;;;;31.25;32.44;95190.59;4928357;29;20048;-79
2021/08/14 13:25:05;;;;;;;4.25;3.95;;;;;;;31.01;32.17;95197.97;4930972;29;20061;-80
2021/08/14 13:27:31;;;;;;;4.10;3.70;;;;;;;30.66;33.06;95194.75;4912386;29;20031;-79
2021/08/14 13:29:56;;;;;;;3.40;3.10;;;;;;;30.98;32.17;95194.00;4908082;29;20461;-74
2021/08/14 13:32:21;;;;;;;4.00;3.70;;;;;;;30.99;33.06;95197.44;4896581;29;20055;-75
2021/08/14 13:34:47;;;;;;;9.55;4.40;;;;;;;30.58;33.41;95199.94;4913678;29;20079;-78
2021/08/14 13:37:15;;;;;;;3.78;3.47;;;;;;;31.13;34.23;95184.91;4929495;29;20047;-75
2021/08/14 13:39:41;;;;;;;6.17;4.20;;;;;;;31.31;34.04;95186.72;4913299;29;20032;-75
2021/08/14 13:42:06;;;;;;;4.32;3.92;;;;;;;30.91;34.39;95182.84;4901028;29;20050;-76
2021/08/14 13:44:32;;;;;;;4.20;3.80;;;;;;;31.10;34.09;95196.22;4893372;29;20100;-75
2021/08/14 13:46:57;;;;;;;4.68;4.03;;;;;;;30.78;33.72;95181.72;4902120;29;20083;-75
2021/08/14 13:49:23;;;;;;;4.43;4.13;;;;;;;31.01;34.18;95188.06;4892955;29;20036;-75
2021/08/14 13:51:48;;;;;;;4.45;4.00;;;;;;;31.03;34.34;95191.25;4894589;29;20035;-77
2021/08/14 13:54:16;;;;;;;4.57;4.28;;;;;;;31.17;33.77;95172.53;4892887;29;20031;-81
2021/08/14 13:56:42;;;;;;;3.83;3.50;;;;;;;30.96;34.27;95182.78;4895011;29;20032;-79
2021/08/14 13:59:07;;;;;;;4.32;3.92;;;;;;;30.64;34.28;95180.84;4878791;29;20429;-84
2021/08/14 14:01:33;;;;;;;6.40;3.85;;;;;;;30.69;34.84;95164.72;4893706;29;20031;-76
2021/08/14 14:03:58;;;;;;;4.10;3.80;;;;;;;30.49;34.95;95180.28;4879472;29;20379;-77
2021/08/14 14:06:24;;;;;;;4.25;3.95;;;;;;;30.49;34.62;95170.38;4893199;29;20043;-77
2021/08/14 14:08:50;;;;;;;4.10;3.80;;;;;;;30.30;34.78;95173.03;4910786;29;20035;-76
2021/08/14 14:11:15;;;;;;;4.70;3.97;;;;;;;30.69;34.31;95167.41;4908851;29;20032;-75
2021/08/14 14:13:41;;;;;;;4.72;4.10;;;;;;;30.57;34.56;95164.38;4894864;29;20036;-77
2021/08/14 14:16:06;;;;;;;8.68;3.80;;;;;;;30.43;34.93;95168.06;4896697;29;20541;-82
2021/08/14 14:18:32;;;;;;;3.95;3.65;;;;;;;30.57;34.93;95171.59;4912999;29;20039;-79
2021/08/14 14:20:57;;;;;;;4.38;3.70;;;;;;;30.62;35.13;95171.53;4930314;29;20079;-78
2021/08/14 14:23:23;;;;;;;5.38;3.50;;;;;;;30.43;34.36;95168.06;4913546;29;20059;-81
2021/08/14 14:25:48;;;;;;;4.38;3.83;;;;;;;30.37;34.37;95164.66;4917044;29;20397;-77
2021/08/14 14:28:13;;;;;;;4.93;3.80;;;;;;;30.68;33.80;95159.66;4915617;29;20035;-79
2021/08/14 14:30:42;;;;;;;4.75;3.78;;;;;;;30.81;33.82;95157.03;4916777;29;20036;-82
2021/08/14 14:33:08;;;;;;;3.70;3.40;;;;;;;30.55;34.11;95163.88;4915665;29;20043;-80
2021/08/14 14:35:34;;;;;;;3.88;3.55;;;;;;;30.36;34.18;95157.72;4916645;29;20584;-78
2021/08/14 14:37:59;;;;;;;4.22;3.88;;;;;;;30.43;34.34;95160.84;4915756;29;20544;-76
2021/08/14 14:40:24;;;;;;;4.90;4.20;;;;;;;30.31;35.30;95155.88;4932829;29;20063;-76
2021/08/14 14:42:50;;;;;;;4.20;3.90;;;;;;;29.93;34.55;95154.28;4933802;29;20035;-76
2021/08/14 14:45:15;;;;;;;4.95;3.70;;;;;;;30.14;35.53;95155.63;4914497;29;20035;-77
2021/08/14 14:47:41;;;;;;;4.07;3.50;;;;;;;29.97;35.49;95155.28;4900720;29;20043;-76
2021/08/14 14:50:07;;;;;;;3.58;3.25;;;;;;;29.94;35.46;95160.41;4915078;29;20517;-77
2021/08/14 14:52:32;;;;;;;4.68;3.38;;;;;;;29.87;34.77;95162.63;4899441;29;20028;-76
2021/08/14 14:54:58;;;;;;;4.22;3.92;;;;;;;30.04;34.51;95158.41;4880873;29;20040;-75
2021/08/14 14:57:24;;;;;;;6.32;4.22;;;;;;;30.01;34.33;95155.53;4897193;29;20028;-78
2021/08/14 14:59:50;;;;;;;4.00;3.70;;;;;;;29.73;34.72;95151.84;4913004;29;20490;-79
2021/08/14 15:02:15;;;;;;;4.18;3.85;;;;;;;29.88;33.97;95156.22;4912058;29;20043;-76
2021/08/14 15:04:41;;;;;;;5.60;3.60;;;;;;;29.85;34.44;95156.78;4912852;29;20091;-77
2021/08/14 15:07:06;;;;;;;4.15;3.80;;;;;;;29.84;34.21;95153.31;4895958;29;20099;-76
2021/08/14 15:09:32;;;;;;;3.72;3.42;;;;;;;29.88;34.64;95153.53;4897126;29;20032;-76
2021/08/14 15:11:57;;;;;;;4.28;3.97;;;;;;;29.68;34.50;95155.34;4912968;29;20044;-75
2021/08/14 15:14:23;;;;;;;4.32;3.95;;;;;;;29.77;34.54;95153.63;4914266;29;20028;-76
2021/08/14 15:16:48;;;;;;;5.28;4.10;;;;;;;29.70;34.60;95147.84;4914365;29;20417;-82
2021/08/14 15:19:13;;;;;;;3.90;3.60;;;;;;;29.61;34.87;95149.56;4915284;29;20039;-75
2021/08/14 15:21:39;;;;;;;4.10;3.80;;;;;;;29.60;34.89;95148.00;4932378;29;20054;-75
2021/08/14 15:24:05;;;;;;;4.18;3.78;;;;;;;29.55;34.11;95139.22;4913160;29;20433;-74
2021/08/14 15:26:31;;;;;;;4.20;3.80;;;;;;;29.51;35.59;95149.66;4899330;29;20107;-76
2021/08/14 15:28:57;;;;;;;9.50;4.43;;;;;;;29.40;35.65;95140.19;4894272;29;20028;-76
2021/08/14 15:31:22;;;;;;;4.30;3.90;;;;;;;29.45;35.44;95145.47;4880734;29;20035;-75
2021/08/14 15:33:47;;;;;;;398.88;360.52;;;;;;;29.30;35.76;95137.63;4893968;29;20036;-79
2021/08/14 15:36:13;;;;;;;18.45;16.88;;;;;;;29.34;36.33;95133.31;4895478;29;20032;-75
2021/08/14 15:38:38;;;;;;;28.00;25.38;;;;;;;29.12;36.08;95141.78;4911154;29;20591;-76
2021/08/14 15:41:07;;;;;;;5.60;5.10;;;;;;;29.09;36.08;95142.34;4911296;29;20028;-76
2021/08/14 15:43:32;;;;;;;12.18;11.15;;;;;;;29.09;36.06;95137.00;4895802;29;20094;-75
2021/08/14 15:45:58;;;;;;;8.95;8.38;;;;;;;28.96;35.90;95140.31;4910673;29;20028;-76
2021/08/14 15:48:23;;;;;;;5.35;4.85;;;;;;;28.93;36.35;95142.78;4912875;29;20028;-80
2021/08/14 15:50:49;;;;;;;13.50;12.55;;;;;;;28.94;36.51;95142.47;4909393;29;20040;-75
2021/08/14 15:53:15;;;;;;;7.72;7.22;;;;;;;28.83;35.99;95132.19;4912829;29;20031;-77
2021/08/14 15:55:41;;;;;;;15.57;14.05;;;;;;;28.80;35.84;95132.75;4902629;29;20062;-75
2021/08/14 15:58:06;;;;;;;60.53;54.17;;;;;;;28.67;36.30;95132.31;4913414;29;20047;-75
2021/08/14 16:00:32;;;;;;;12.68;11.52;;;;;;;28.73;36.77;95138.41;4914412;29;20505;-74
2021/08/14 16:02:57;;;;;;;8.00;7.35;;;;;;;28.55;36.68;95137.19;4912161;29;20141;-74
2021/08/14 16:05:23;;;;;;;5.50;4.55;;;;;;;28.54;37.07;95138.28;4898437;29;20111;-74
2021/08/14 16:07:48;;;;;;;4.72;3.90;;;;;;;28.48;36.88;95141.25;4929108;29;20055;-74
2021/08/14 16:10:14;;;;;;;4.65;4.25;;;;;;;28.42;37.65;95137.81;4898579;29;20513;-75
2021/08/14 16:12:40;;;;;;;5.50;3.97;;;;;;;28.38;37.46;95131.47;4912835;29;20030;-74
2021/08/14 16:15:06;;;;;;;4.50;4.10;;;;;;;28.33;38.05;95134.13;4897377;29;20043;-78
2021/08/14 16:17:31;;;;;;;5.88;4.07;;;;;;;28.28;37.34;95134.19;4898169;29;20031;-74
2021/08/14 16:19:57;;;;;;;6.07;4.05;;;;;;;28.15;37.39;95132.94;4912090;29;20034;-73
2021/08/14 16:22:23;;;;;;;4.28;3.97;;;;;;;28.09;37.95;95135.91;4913842;29;20399;-76
2021/08/14 16:24:48;;;;;;;4.35;3.95;;;;;;;27.99;37.87;95131.41;4880209;29;20028;-75
2021/08/14 16:27:14;;;;;;;4.55;4.18;;;;;;;27.88;38.88;95132.50;4905895;29;20510;-76
2021/08/14 16:29:39;;;;;;;3.83;3.53;;;;;;;27.83;38.00;95135.22;4893182;29;20028;-75
2021/08/14 16:32:05;;;;;;;4.65;4.18;;;;;;;27.73;37.90;95130.72;4894875;29;20032;-73
2021/08/14 16:34:30;;;;;;;4.28;3.97;;;;;;;27.64;38.39;95143.03;4878551;29;20036;-74
2021/08/14 16:36:56;;;;;;;7.28;3.75;;;;;;;27.58;38.28;95128.13;4910708;29;20027;-82